createdAt,value
2022-12-15T00:00:00.212Z,19.8
2022-12-15T00:05:00.171Z,16.9
2022-12-15T00:10:00.241Z,16.9
2022-12-15T00:15:00.216Z,16.3
2022-12-15T00:20:00.219Z,16.1
2022-12-15T00:25:00.160Z,14.8
2022-12-15T00:30:00.206Z,17.5
2022-12-15T00:35:00.167Z,17.1
2022-12-15T00:40:00.198Z,16.4
2022-12-15T00:45:00.200Z,14.2
2022-12-15T00:50:00.192Z,15.5
2022-12-15T00:55:00.177Z,16.5
2022-12-15T01:00:00.254Z,15.2
2022-12-15T01:05:00.156Z,18.0
2022-12-15T01:10:00.258Z,15.8
2022-12-15T01:15:00.210Z,17.9
2022-12-15T01:20:00.204Z,17.4
2022-12-15T01:25:00.163Z,16.8
2022-12-15T01:30:00.228Z,17.8
2022-12-15T01:35:00.157Z,17.2
2022-12-15T01:40:00.180Z,17.1
2022-12-15T01:45:00.177Z,14.9
2022-12-15T01:50:00.191Z,14.9
2022-12-15T01:55:00.161Z,15.5
2022-12-15T02:00:00.200Z,16.0
2022-12-15T02:05:00.158Z,17.2
2022-12-15T02:10:00.336Z,15.8
2022-12-15T02:15:00.199Z,17.3
2022-12-15T02:20:00.212Z,19.0
2022-12-15T02:25:00.150Z,20.0
2022-12-15T02:30:00.166Z,18.1
2022-12-15T02:35:00.182Z,16.8
2022-12-15T02:40:00.217Z,14.9
2022-12-15T02:45:00.167Z,13.8
2022-12-15T02:50:00.177Z,15.6
2022-12-15T02:55:00.157Z,16.3
2022-12-15T03:00:00.196Z,16.6
2022-12-15T03:05:00.180Z,16.4
2022-12-15T03:10:00.196Z,16.9
2022-12-15T03:15:00.230Z,15.3
2022-12-15T03:20:00.250Z,18.7
2022-12-15T03:25:00.219Z,15.3
2022-12-15T03:30:00.231Z,19.6
2022-12-15T03:35:00.280Z,18.4
2022-12-15T03:40:00.266Z,13.7
2022-12-15T03:45:00.277Z,17.1
2022-12-15T03:50:00.260Z,17.0
2022-12-15T03:55:00.260Z,16.1
2022-12-15T04:00:00.281Z,16.1
2022-12-15T04:05:00.241Z,19.4
2022-12-15T04:10:00.252Z,17.9
2022-12-15T04:15:00.280Z,17.1
2022-12-15T04:20:00.273Z,16.8
2022-12-15T04:25:00.144Z,16.4
2022-12-15T04:30:00.231Z,17.9
2022-12-15T04:35:00.176Z,15.8
2022-12-15T04:40:00.211Z,14.7
2022-12-15T04:45:00.152Z,17.3
2022-12-15T04:50:00.179Z,14.1
2022-12-15T04:55:00.208Z,14.8
2022-12-15T05:00:00.179Z,15.9
2022-12-15T05:05:00.168Z,14.8
2022-12-15T05:10:03.144Z,17.0
2022-12-15T05:15:00.166Z,18.4
2022-12-15T05:20:00.198Z,18.4
2022-12-15T05:25:00.179Z,15.3
2022-12-15T05:30:00.214Z,14.9
2022-12-15T05:35:00.155Z,16.1
2022-12-15T05:40:00.203Z,15.9
2022-12-15T05:45:00.156Z,18.9
2022-12-15T05:50:00.184Z,16.7
2022-12-15T05:55:00.168Z,16.3
2022-12-15T06:00:00.363Z,18.9
2022-12-15T06:05:00.280Z,14.6
2022-12-15T06:10:00.700Z,17.4
2022-12-15T06:15:00.152Z,21.0
2022-12-15T06:20:00.430Z,16.0
2022-12-15T06:25:00.198Z,17.9
2022-12-15T06:30:00.218Z,17.6
2022-12-15T06:35:00.149Z,18.7
2022-12-15T06:40:00.404Z,15.4
2022-12-15T06:45:00.146Z,16.6
2022-12-15T06:50:00.366Z,18.2
2022-12-15T06:55:00.204Z,15.4
2022-12-15T07:00:00.854Z,16.9
2022-12-15T07:05:00.183Z,17.7
2022-12-15T07:10:00.193Z,21.3
2022-12-15T07:15:00.189Z,20.5
2022-12-15T07:20:00.236Z,18.9
2022-12-15T07:25:00.201Z,14.0
2022-12-15T07:30:00.211Z,19.0
2022-12-15T07:35:00.178Z,17.9
2022-12-15T07:40:00.205Z,20.0
2022-12-15T07:45:00.194Z,21.5
2022-12-15T07:50:00.190Z,18.4
2022-12-15T07:55:00.196Z,19.4
2022-12-15T08:00:00.180Z,18.1
2022-12-15T08:05:00.188Z,15.7
2022-12-15T08:10:00.204Z,14.9
2022-12-15T08:15:00.155Z,13.6
2022-12-15T08:20:04.747Z,16.6
2022-12-15T08:25:00.183Z,17.3
2022-12-15T08:30:00.201Z,15.0
2022-12-15T08:35:00.199Z,16.7
2022-12-15T08:40:00.216Z,15.0
2022-12-15T08:45:00.188Z,17.6
2022-12-15T08:50:00.200Z,16.0
2022-12-15T08:55:00.201Z,18.6
2022-12-15T09:00:00.292Z,15.1
2022-12-15T09:05:00.151Z,14.6
2022-12-15T09:10:00.369Z,16.9
2022-12-15T09:15:00.158Z,18.2
2022-12-15T09:20:00.204Z,14.3
2022-12-15T09:25:00.240Z,15.0
2022-12-15T09:30:00.264Z,20.6
2022-12-15T09:35:00.196Z,30.4
2022-12-15T09:40:00.221Z,15.6
2022-12-15T09:45:00.200Z,18.0
2022-12-15T09:50:00.361Z,13.5
2022-12-15T09:55:00.265Z,13.9
2022-12-15T10:00:00.609Z,17.4
2022-12-15T10:05:00.197Z,16.5
2022-12-15T10:10:00.165Z,14.0
2022-12-15T10:15:00.219Z,22.0
2022-12-15T10:20:00.219Z,17.2
2022-12-15T10:25:11.120Z,19.5
2022-12-15T10:30:00.353Z,17.0
2022-12-15T10:35:00.288Z,15.9
2022-12-15T10:40:00.157Z,21.2
2022-12-15T10:45:00.174Z,27.3
2022-12-15T10:50:00.171Z,14.1
2022-12-15T10:55:00.197Z,16.4
2022-12-15T11:00:00.787Z,13.7
2022-12-15T11:05:00.159Z,14.6
2022-12-15T11:10:00.360Z,14.7
2022-12-15T11:15:00.158Z,12.1
2022-12-15T11:20:03.456Z,16.2
2022-12-15T11:25:00.183Z,15.4
2022-12-15T11:30:00.247Z,16.0
2022-12-15T11:35:00.211Z,14.1
2022-12-15T11:40:00.204Z,13.3
2022-12-15T11:45:00.185Z,17.0
2022-12-15T11:50:00.212Z,15.3
2022-12-15T11:55:00.206Z,15.3
2022-12-15T12:00:00.316Z,15.0
2022-12-15T12:05:00.150Z,10.6
2022-12-15T12:10:00.462Z,11.1
2022-12-15T12:15:00.168Z,13.6
2022-12-15T12:20:00.221Z,14.5
2022-12-15T12:25:00.239Z,14.5
2022-12-15T12:30:00.269Z,16.7
2022-12-15T12:40:00.220Z,14.1
2022-12-15T12:45:00.171Z,18.5
2022-12-15T12:50:00.169Z,14.7
2022-12-15T12:55:00.177Z,13.4
2022-12-15T13:00:00.213Z,12.3
2022-12-15T13:05:00.160Z,15.7
2022-12-15T13:10:00.202Z,14.4
2022-12-15T13:15:00.180Z,16.7
2022-12-15T13:20:00.230Z,21.1
2022-12-15T13:25:00.152Z,16.3
2022-12-15T13:30:00.209Z,11.7
2022-12-15T13:35:00.157Z,12.2
2022-12-15T13:40:00.219Z,9.4
2022-12-15T13:45:00.199Z,14.6
2022-12-15T13:50:02.273Z,11.8
2022-12-15T13:55:00.166Z,12.3
2022-12-15T14:00:00.345Z,12.4
2022-12-15T14:05:00.170Z,11.1
2022-12-15T14:10:00.201Z,10.7
2022-12-15T14:15:00.215Z,12.5
2022-12-15T14:20:00.196Z,10.5
2022-12-15T14:25:00.155Z,12.1
2022-12-15T14:30:01.019Z,14.3
2022-12-15T14:35:00.206Z,12.8
2022-12-15T14:40:00.187Z,16.6
2022-12-15T14:45:00.184Z,11.3
2022-12-15T14:50:00.418Z,14.6
2022-12-15T14:55:00.167Z,14.0
2022-12-15T15:00:00.233Z,9.8
2022-12-15T15:03:10.457Z,14.3
2022-12-15T15:05:00.204Z,12.5
2022-12-15T15:10:00.224Z,13.2
2022-12-15T15:15:00.152Z,16.1
2022-12-15T15:20:00.204Z,14.0
2022-12-15T15:25:00.203Z,9.9
2022-12-15T15:30:00.184Z,15.2
2022-12-15T15:35:00.181Z,13.1
2022-12-15T15:40:00.428Z,14.4
2022-12-15T15:45:00.218Z,11.1
2022-12-15T15:50:00.173Z,16.3
2022-12-15T15:55:00.231Z,11.7
2022-12-15T16:00:00.450Z,13.6
2022-12-15T16:05:00.168Z,14.6
2022-12-15T16:10:00.217Z,11.9
2022-12-15T16:15:00.180Z,12.9
2022-12-15T16:20:00.192Z,14.8
2022-12-15T16:25:00.209Z,14.5
2022-12-15T16:30:00.377Z,16.4
2022-12-15T16:35:00.161Z,16.7
2022-12-15T16:40:00.213Z,16.2
2022-12-15T16:45:00.150Z,16.5
2022-12-15T16:50:00.189Z,14.7
2022-12-15T16:55:00.184Z,17.4
2022-12-15T17:00:00.222Z,18.9
2022-12-15T17:05:00.169Z,17.4
2022-12-15T17:10:00.262Z,18.2
2022-12-15T17:15:00.146Z,16.1
2022-12-15T17:25:00.218Z,18.9
2022-12-15T17:30:00.261Z,17.6
2022-12-15T17:35:00.156Z,18.8
2022-12-15T17:40:00.200Z,15.8
2022-12-15T17:45:00.352Z,16.2
2022-12-15T17:50:00.259Z,18.2
2022-12-15T17:55:00.154Z,15.6
2022-12-15T18:00:00.368Z,16.4
2022-12-15T18:05:00.159Z,18.9
2022-12-15T18:10:00.324Z,15.5
2022-12-15T18:15:00.194Z,19.2
2022-12-15T18:20:00.335Z,19.8
2022-12-15T18:25:00.149Z,20.7
2022-12-15T18:30:00.475Z,18.6
2022-12-15T18:35:00.153Z,21.1
2022-12-15T18:40:04.424Z,21.1
2022-12-15T18:45:00.197Z,28.1
2022-12-15T18:50:00.183Z,27.3
2022-12-15T18:55:00.196Z,26.0
2022-12-15T19:00:00.182Z,29.8
2022-12-15T19:05:00.152Z,29.5
2022-12-15T19:10:00.198Z,23.4
2022-12-15T19:15:00.202Z,18.5
2022-12-15T19:20:00.235Z,19.4
2022-12-15T19:25:00.165Z,21.5
2022-12-15T19:30:00.373Z,23.5
2022-12-15T19:35:00.203Z,17.9
2022-12-15T19:40:00.310Z,15.7
2022-12-15T19:45:00.147Z,21.1
2022-12-15T19:50:00.216Z,19.2
2022-12-15T19:55:00.187Z,18.0
2022-12-15T20:00:00.236Z,22.8
2022-12-15T20:05:00.198Z,20.6
2022-12-15T20:10:00.208Z,18.9
2022-12-15T20:15:00.236Z,23.3
2022-12-15T20:20:00.259Z,28.4
2022-12-15T20:25:00.176Z,25.4
2022-12-15T20:30:00.204Z,23.0
2022-12-15T20:35:00.188Z,22.4
2022-12-15T20:40:00.161Z,23.3
2022-12-15T20:45:00.180Z,20.0
2022-12-15T20:50:00.198Z,23.3
2022-12-15T20:55:00.204Z,30.3
2022-12-15T21:00:00.230Z,35.5
2022-12-15T21:05:00.150Z,26.7
2022-12-15T21:10:00.216Z,21.4
2022-12-15T21:15:00.210Z,22.6
2022-12-15T21:20:00.206Z,22.1
2022-12-15T21:25:00.187Z,21.8
2022-12-15T21:30:00.430Z,21.5
2022-12-15T21:35:00.151Z,25.3
2022-12-15T21:40:00.342Z,27.1
2022-12-15T21:45:00.194Z,23.9
2022-12-15T21:50:00.191Z,25.0
2022-12-15T21:55:00.148Z,25.5
2022-12-15T22:00:00.235Z,28.9
2022-12-15T22:05:00.143Z,31.9
2022-12-15T22:10:00.181Z,27.2
2022-12-15T22:15:00.184Z,27.7
2022-12-15T22:20:00.221Z,26.3
2022-12-15T22:25:00.164Z,29.3
2022-12-15T22:30:00.428Z,23.0
2022-12-15T22:35:00.153Z,31.4
2022-12-15T22:40:00.218Z,35.9
2022-12-15T22:45:00.192Z,26.7
2022-12-15T22:50:00.197Z,28.5
2022-12-15T22:55:00.153Z,26.2
2022-12-15T23:00:02.303Z,24.0
2022-12-15T23:05:00.161Z,23.2
2022-12-15T23:10:00.195Z,30.5
2022-12-15T23:15:00.188Z,26.3
2022-12-15T23:20:00.357Z,27.1
2022-12-15T23:25:00.159Z,28.2
2022-12-15T23:30:00.241Z,22.9
2022-12-15T23:35:00.210Z,26.5
2022-12-15T23:40:00.222Z,24.8
2022-12-15T23:45:00.256Z,23.7
2022-12-15T23:50:00.205Z,23.4
2022-12-15T23:55:00.207Z,20.6
